createdAt,value
2023-03-01T00:00:52.103Z,8.73
2023-03-01T00:03:20.090Z,7.87
2023-03-01T00:05:47.716Z,8.30
2023-03-01T00:08:14.329Z,8.13
2023-03-01T00:10:40.787Z,8.33
2023-03-01T00:13:07.693Z,7.77
2023-03-01T00:15:35.817Z,8.07
2023-03-01T00:18:02.241Z,8.20
2023-03-01T00:20:30.898Z,8.70
2023-03-01T00:22:57.378Z,7.93
2023-03-01T00:25:23.791Z,8.30
2023-03-01T00:27:50.554Z,7.70
2023-03-01T00:30:17.169Z,8.30
2023-03-01T00:32:43.608Z,8.70
2023-03-01T00:35:10.485Z,8.17
2023-03-01T00:37:36.919Z,8.07
2023-03-01T00:40:07.030Z,9.87
2023-03-01T00:42:33.460Z,9.13
2023-03-01T00:44:59.885Z,7.77
2023-03-01T00:47:26.359Z,8.63
2023-03-01T00:49:52.826Z,9.03
2023-03-01T00:52:19.265Z,9.37
2023-03-01T00:54:45.880Z,10.13
2023-03-01T00:57:12.325Z,9.90
2023-03-01T00:59:38.741Z,8.97
2023-03-01T01:02:05.190Z,9.43
2023-03-01T01:04:31.668Z,9.00
2023-03-01T01:06:58.110Z,9.00
2023-03-01T01:09:24.512Z,9.40
2023-03-01T01:11:51.807Z,8.63
2023-03-01T01:14:19.523Z,8.27
2023-03-01T01:16:46.023Z,8.43
2023-03-01T01:19:12.997Z,8.87
2023-03-01T01:21:39.434Z,8.90
2023-03-01T01:24:06.443Z,8.17
2023-03-01T01:26:34.893Z,8.20
2023-03-01T01:29:03.306Z,7.93
2023-03-01T01:31:30.964Z,9.60
2023-03-01T01:33:58.344Z,9.50
2023-03-01T01:36:24.851Z,8.43
2023-03-01T01:38:51.868Z,8.67
2023-03-01T01:41:18.888Z,8.70
2023-03-01T01:43:48.353Z,9.20
2023-03-01T01:46:30.284Z,8.47
2023-03-01T01:49:01.237Z,9.10
2023-03-01T01:51:39.335Z,9.70
2023-03-01T01:54:28.108Z,9.43
2023-03-01T01:57:01.934Z,8.87
2023-03-01T01:59:29.779Z,9.27
2023-03-01T02:01:56.308Z,9.47
2023-03-01T02:04:23.207Z,9.53
2023-03-01T02:06:55.372Z,9.27
2023-03-01T02:09:22.987Z,8.90
2023-03-01T02:11:50.129Z,10.07
2023-03-01T02:14:17.064Z,9.93
2023-03-01T02:16:43.991Z,9.80
2023-03-01T02:19:17.901Z,9.63
2023-03-01T02:22:07.621Z,9.90
2023-03-01T02:24:39.864Z,10.67
2023-03-01T02:27:06.591Z,10.27
2023-03-01T02:29:33.060Z,10.30
2023-03-01T02:32:00.968Z,9.20
2023-03-01T02:34:28.073Z,8.80
2023-03-01T02:37:07.434Z,9.47
2023-03-01T02:40:00.773Z,9.87
2023-03-01T02:42:33.008Z,9.63
2023-03-01T02:44:59.654Z,9.90
2023-03-01T02:47:26.076Z,9.90
2023-03-01T02:49:52.628Z,9.90
2023-03-01T02:52:46.009Z,9.97
2023-03-01T02:55:15.580Z,10.17
2023-03-01T02:57:44.567Z,10.40
2023-03-01T03:00:20.353Z,10.50
2023-03-01T03:02:52.994Z,10.70
2023-03-01T03:05:22.171Z,9.97
2023-03-01T03:07:49.996Z,11.03
2023-03-01T03:10:27.764Z,10.03
2023-03-01T03:13:00.188Z,10.80
2023-03-01T03:15:28.106Z,10.60
2023-03-01T03:17:54.802Z,10.93
2023-03-01T03:20:23.626Z,12.03
2023-03-01T03:22:52.712Z,10.57
2023-03-01T03:25:19.722Z,9.93
2023-03-01T03:27:48.248Z,9.90
2023-03-01T03:30:18.459Z,10.93
2023-03-01T03:32:53.053Z,9.90
2023-03-01T03:35:33.824Z,9.87
2023-03-01T03:38:02.922Z,11.80
2023-03-01T03:40:38.427Z,11.17
2023-03-01T03:43:06.445Z,10.23
2023-03-01T03:45:34.465Z,9.73
2023-03-01T03:48:01.706Z,10.30
2023-03-01T03:50:28.255Z,9.97
2023-03-01T03:52:54.792Z,11.40
2023-03-01T03:55:21.274Z,10.47
2023-03-01T03:57:52.550Z,10.50
2023-03-01T04:00:21.911Z,10.97
2023-03-01T04:02:49.328Z,10.30
2023-03-01T04:05:17.294Z,9.97
2023-03-01T04:07:44.061Z,10.83
2023-03-01T04:10:14.037Z,11.13
2023-03-01T04:12:40.526Z,10.27
2023-03-01T04:15:14.093Z,11.13
2023-03-01T04:17:45.163Z,10.80
2023-03-01T04:20:14.676Z,10.37
2023-03-01T04:22:41.576Z,10.27
2023-03-01T04:25:08.516Z,10.63
2023-03-01T04:27:35.442Z,11.57
2023-03-01T04:30:02.670Z,10.70
2023-03-01T04:32:29.188Z,10.10
2023-03-01T04:34:55.805Z,11.87
2023-03-01T04:37:22.260Z,10.00
2023-03-01T04:39:48.733Z,9.67
2023-03-01T04:42:16.158Z,11.50
2023-03-01T04:44:42.634Z,9.90
2023-03-01T04:47:09.165Z,9.77
2023-03-01T04:49:35.819Z,11.20
2023-03-01T04:52:05.090Z,11.93
2023-03-01T04:54:32.715Z,11.53
2023-03-01T04:56:59.701Z,11.93
2023-03-01T04:59:26.624Z,11.20
2023-03-01T05:01:56.420Z,11.67
2023-03-01T05:04:23.961Z,12.85
2023-03-01T05:06:50.901Z,12.03
2023-03-01T05:09:17.563Z,12.73
2023-03-01T05:11:44.586Z,11.97
2023-03-01T05:14:11.346Z,11.87
2023-03-01T05:16:38.169Z,12.10
2023-03-01T05:19:16.134Z,12.60
2023-03-01T05:22:02.512Z,12.40
2023-03-01T05:24:30.552Z,12.53
2023-03-01T05:26:57.023Z,12.77
2023-03-01T05:29:27.942Z,11.90
2023-03-01T05:31:55.922Z,12.87
2023-03-01T05:34:34.028Z,13.27
2023-03-01T05:37:01.052Z,12.30
2023-03-01T05:39:29.358Z,13.27
2023-03-01T05:42:00.628Z,13.03
2023-03-01T05:44:27.789Z,13.03
2023-03-01T05:46:55.980Z,13.13
2023-03-01T05:49:24.893Z,15.40
2023-03-01T05:51:53.402Z,13.43
2023-03-01T05:54:21.237Z,13.20
2023-03-01T05:56:47.965Z,13.40
2023-03-01T05:59:15.971Z,15.17
2023-03-01T06:01:42.405Z,14.50
2023-03-01T06:04:09.158Z,14.60
2023-03-01T06:06:40.408Z,14.53
2023-03-01T06:09:08.371Z,14.33
2023-03-01T06:11:35.978Z,14.40
2023-03-01T06:14:02.568Z,14.20
2023-03-01T06:16:29.510Z,15.87
2023-03-01T06:18:56.263Z,14.73
2023-03-01T06:21:22.748Z,17.30
2023-03-01T06:23:49.171Z,13.33
2023-03-01T06:26:15.654Z,15.97
2023-03-01T06:28:42.066Z,15.57
2023-03-01T06:31:09.862Z,15.63
2023-03-01T06:33:37.379Z,16.77
2023-03-01T06:36:04.313Z,14.10
2023-03-01T06:38:30.831Z,16.10
2023-03-01T06:40:57.658Z,15.47
2023-03-01T06:43:24.672Z,14.70
2023-03-01T06:45:51.468Z,15.33
2023-03-01T06:48:18.358Z,14.53
2023-03-01T06:50:44.920Z,14.67
2023-03-01T06:53:11.585Z,14.93
2023-03-01T06:55:38.046Z,16.00
2023-03-01T06:58:04.509Z,16.47
2023-03-01T07:00:31.498Z,17.30
2023-03-01T07:03:04.660Z,15.00
2023-03-01T07:05:31.902Z,15.53
2023-03-01T07:07:58.443Z,15.30
2023-03-01T07:10:25.062Z,17.43
2023-03-01T07:12:51.597Z,17.27
2023-03-01T07:15:21.302Z,15.47
2023-03-01T07:17:50.859Z,16.37
2023-03-01T07:20:18.592Z,16.50
2023-03-01T07:22:45.056Z,15.53
2023-03-01T07:25:12.005Z,16.43
2023-03-01T07:27:38.468Z,15.30
2023-03-01T07:30:05.457Z,16.67
2023-03-01T07:32:32.074Z,15.13
2023-03-01T07:34:58.568Z,16.23
2023-03-01T07:37:25.037Z,15.67
2023-03-01T07:39:51.514Z,15.93
2023-03-01T07:42:17.933Z,16.10
2023-03-01T07:44:44.410Z,15.07
2023-03-01T07:47:10.942Z,17.37
2023-03-01T07:49:37.382Z,15.60
2023-03-01T07:52:03.995Z,15.87
2023-03-01T07:54:30.520Z,15.73
2023-03-01T07:56:57.888Z,16.37
2023-03-01T07:59:29.807Z,15.30
2023-03-01T08:01:57.455Z,17.30
2023-03-01T08:04:25.821Z,15.23
2023-03-01T08:06:52.686Z,15.37
2023-03-01T08:09:19.224Z,15.30
2023-03-01T08:11:45.762Z,15.67
2023-03-01T08:14:12.200Z,15.90
2023-03-01T08:16:38.885Z,16.20
2023-03-01T08:19:10.187Z,15.47
2023-03-01T08:21:37.192Z,16.23
2023-03-01T08:24:06.696Z,18.05
2023-03-01T08:26:35.971Z,16.88
2023-03-01T08:29:02.547Z,16.50
2023-03-01T08:31:36.577Z,15.73
2023-03-01T08:34:08.958Z,16.23
2023-03-01T08:36:43.595Z,16.70
2023-03-01T08:39:12.306Z,15.57
2023-03-01T08:41:39.224Z,15.60
2023-03-01T08:44:06.109Z,15.45
2023-03-01T08:46:36.828Z,16.85
2023-03-01T08:49:07.992Z,16.15
2023-03-01T08:51:37.669Z,16.90
2023-03-01T08:54:10.818Z,15.52
2023-03-01T08:56:37.369Z,15.98
2023-03-01T08:59:04.425Z,15.73
2023-03-01T09:01:30.952Z,15.95
2023-03-01T09:03:57.436Z,15.75
2023-03-01T09:06:23.942Z,16.23
2023-03-01T09:08:51.337Z,16.88
2023-03-01T09:11:20.514Z,17.63
2023-03-01T09:13:48.171Z,16.45
2023-03-01T09:16:16.279Z,16.67
2023-03-01T09:18:42.758Z,16.75
2023-03-01T09:21:14.884Z,15.60
2023-03-01T09:23:45.843Z,15.57
2023-03-01T09:26:22.993Z,16.10
2023-03-01T09:28:54.495Z,16.15
2023-03-01T09:31:22.190Z,16.70
2023-03-01T09:33:51.211Z,16.63
2023-03-01T09:36:21.614Z,16.10
2023-03-01T09:38:48.665Z,15.07
2023-03-01T09:41:18.242Z,16.70
2023-03-01T09:44:05.963Z,15.90
2023-03-01T09:46:38.905Z,16.67
2023-03-01T09:49:12.257Z,15.77
2023-03-01T09:51:38.907Z,16.58
2023-03-01T09:54:06.623Z,16.58
2023-03-01T09:56:42.732Z,15.85
2023-03-01T09:59:15.226Z,15.98
2023-03-01T10:01:59.403Z,15.65
2023-03-01T10:04:48.983Z,15.82
2023-03-01T10:07:29.167Z,16.23
2023-03-01T10:09:55.734Z,16.02
2023-03-01T10:12:27.835Z,16.35
2023-03-01T10:15:06.526Z,16.05
2023-03-01T10:17:53.823Z,18.02
2023-03-01T10:20:43.049Z,15.48
2023-03-01T10:23:10.017Z,15.32
2023-03-01T10:25:45.400Z,16.02
2023-03-01T10:28:19.071Z,16.40
2023-03-01T10:30:46.254Z,15.73
2023-03-01T10:33:23.152Z,15.63
2023-03-01T10:35:49.855Z,15.75
2023-03-01T10:38:18.482Z,14.55
2023-03-01T10:40:52.865Z,15.15
2023-03-01T10:43:19.526Z,16.20
2023-03-01T10:45:45.999Z,15.55
2023-03-01T10:48:18.007Z,15.45
2023-03-01T10:50:46.926Z,15.40
2023-03-01T10:53:27.727Z,16.13
2023-03-01T10:56:02.157Z,14.55
2023-03-01T10:58:29.885Z,14.50
2023-03-01T11:01:07.920Z,14.65
2023-03-01T11:03:39.685Z,16.02
2023-03-01T11:06:12.254Z,15.38
2023-03-01T11:08:43.069Z,15.23
2023-03-01T11:11:26.346Z,15.73
2023-03-01T11:14:23.459Z,15.45
2023-03-01T11:17:04.075Z,15.10
2023-03-01T11:19:30.720Z,16.95
2023-03-01T11:22:03.283Z,14.55
2023-03-01T11:24:43.692Z,15.55
2023-03-01T11:27:18.241Z,15.32
2023-03-01T11:29:49.191Z,14.75
2023-03-01T11:32:16.575Z,13.98
2023-03-01T11:35:02.289Z,15.07
2023-03-01T11:37:50.412Z,15.13
2023-03-01T11:40:26.605Z,16.73
2023-03-01T11:43:11.904Z,15.18
2023-03-01T11:45:49.239Z,16.55
2023-03-01T11:48:48.917Z,15.00
2023-03-01T11:51:25.140Z,15.40
2023-03-01T11:54:02.211Z,15.18
2023-03-01T11:56:34.972Z,14.48
2023-03-01T11:59:40.035Z,15.10
2023-03-01T12:02:06.493Z,15.40
2023-03-01T12:05:03.733Z,15.95
2023-03-01T12:07:37.307Z,15.18
2023-03-01T12:10:12.803Z,16.05
2023-03-01T12:12:57.913Z,16.60
2023-03-01T12:15:40.769Z,14.52
2023-03-01T12:18:25.550Z,15.52
2023-03-01T12:21:10.449Z,15.13
2023-03-01T12:23:57.761Z,14.82
2023-03-01T12:26:32.203Z,14.68
2023-03-01T12:29:32.480Z,15.63
2023-03-01T12:32:12.326Z,15.18
2023-03-01T12:35:01.043Z,15.45
2023-03-01T12:37:43.960Z,14.15
2023-03-01T12:40:25.935Z,14.65
2023-03-01T12:43:04.319Z,14.57
2023-03-01T12:45:57.265Z,15.43
2023-03-01T12:48:33.252Z,15.00
2023-03-01T12:51:03.799Z,14.10
2023-03-01T12:53:34.704Z,15.13
2023-03-01T12:56:04.151Z,14.50
2023-03-01T12:58:58.880Z,14.63
2023-03-01T13:01:40.409Z,14.65
2023-03-01T13:04:12.847Z,14.68
2023-03-01T13:06:48.233Z,15.80
2023-03-01T13:10:02.529Z,13.98
2023-03-01T13:12:53.997Z,13.88
2023-03-01T13:15:23.483Z,13.48
2023-03-01T13:18:26.486Z,14.68
2023-03-01T13:20:55.425Z,13.82
2023-03-01T13:23:21.971Z,15.25
2023-03-01T13:26:03.569Z,14.38
2023-03-01T13:28:32.698Z,15.02
2023-03-01T13:30:59.668Z,14.48
2023-03-01T13:33:29.038Z,14.43
2023-03-01T13:35:59.524Z,13.68
2023-03-01T13:38:48.704Z,14.45
2023-03-01T13:41:43.641Z,14.65
2023-03-01T13:44:37.215Z,14.45
2023-03-01T13:47:06.899Z,13.88
2023-03-01T13:49:46.596Z,14.13
2023-03-01T13:52:22.206Z,14.77
2023-03-01T13:54:48.657Z,12.90
2023-03-01T13:57:23.090Z,14.15
2023-03-01T13:59:49.568Z,14.30
2023-03-01T14:02:16.158Z,13.80
2023-03-01T14:04:42.656Z,13.02
2023-03-01T14:07:25.209Z,13.52
2023-03-01T14:09:57.702Z,14.15
2023-03-01T14:12:32.847Z,13.60
2023-03-01T14:15:06.043Z,12.82
2023-03-01T14:17:38.536Z,13.13
2023-03-01T14:20:20.528Z,13.07
2023-03-01T14:22:47.539Z,12.27
2023-03-01T14:25:21.500Z,12.85
2023-03-01T14:27:55.372Z,13.55
2023-03-01T14:30:43.674Z,12.30
2023-03-01T14:33:23.318Z,13.70
2023-03-01T14:35:58.993Z,12.82
2023-03-01T14:38:36.125Z,12.05
2023-03-01T14:41:10.071Z,13.38
2023-03-01T14:43:38.847Z,11.20
2023-03-01T14:46:05.364Z,12.07
2023-03-01T14:48:32.406Z,13.10
2023-03-01T14:50:59.063Z,12.65
2023-03-01T14:53:28.620Z,12.93
2023-03-01T14:55:57.360Z,12.35
2023-03-01T14:58:25.876Z,12.10
2023-03-01T15:00:56.069Z,12.13
2023-03-01T15:03:31.574Z,11.43
2023-03-01T15:05:58.206Z,11.90
2023-03-01T15:08:26.878Z,11.63
2023-03-01T15:10:59.149Z,11.95
2023-03-01T15:13:27.599Z,11.25
2023-03-01T15:16:08.303Z,11.55
2023-03-01T15:18:35.684Z,11.95
2023-03-01T15:21:18.614Z,10.85
2023-03-01T15:23:53.214Z,10.07
2023-03-01T15:26:25.897Z,10.57
2023-03-01T15:28:54.098Z,11.23
2023-03-01T15:31:26.314Z,10.00
2023-03-01T15:33:53.042Z,9.98
2023-03-01T15:36:42.801Z,10.80
2023-03-01T15:39:38.271Z,11.25
2023-03-01T15:42:06.949Z,11.40
2023-03-01T15:44:43.349Z,11.13
2023-03-01T15:47:25.252Z,10.40
2023-03-01T15:49:55.441Z,11.20
2023-03-01T15:52:32.589Z,17.95
2023-03-01T15:55:01.395Z,10.23
2023-03-01T15:57:28.568Z,10.77
2023-03-01T15:59:55.072Z,11.25
2023-03-01T16:02:23.569Z,10.70
2023-03-01T16:04:50.033Z,10.52
2023-03-01T16:07:16.863Z,10.77
2023-03-01T16:09:44.883Z,9.40
2023-03-01T16:12:15.629Z,10.20
2023-03-01T16:14:42.290Z,11.35
2023-03-01T16:17:11.053Z,12.02
2023-03-01T16:19:38.669Z,12.52
2023-03-01T16:22:05.465Z,12.57
2023-03-01T16:24:32.121Z,12.02
2023-03-01T16:26:58.546Z,10.95
2023-03-01T16:29:25.109Z,11.18
2023-03-01T16:31:51.969Z,10.82
2023-03-01T16:34:18.634Z,10.85
2023-03-01T16:36:45.233Z,11.80
2023-03-01T16:39:11.659Z,12.77
2023-03-01T16:41:38.089Z,13.23
2023-03-01T16:44:04.653Z,12.15
2023-03-01T16:46:31.189Z,11.82
2023-03-01T16:48:58.054Z,12.60
2023-03-01T16:51:24.999Z,11.68
2023-03-01T16:53:51.868Z,10.73
2023-03-01T16:56:19.332Z,10.27
2023-03-01T16:58:45.832Z,9.55
2023-03-01T17:01:18.099Z,10.07
2023-03-01T17:03:47.341Z,11.02
2023-03-01T17:06:16.679Z,10.38
2023-03-01T17:08:43.199Z,9.93
2023-03-01T17:11:18.419Z,10.70
2023-03-01T17:13:44.949Z,9.73
2023-03-01T17:16:15.236Z,10.77
2023-03-01T17:18:41.803Z,9.48
2023-03-01T17:21:08.805Z,10.88
2023-03-01T17:23:36.354Z,10.73
2023-03-01T17:26:03.613Z,10.18
2023-03-01T17:28:32.589Z,10.32
2023-03-01T17:31:00.322Z,10.27
2023-03-01T17:33:26.965Z,10.45
2023-03-01T17:35:53.391Z,9.98
2023-03-01T17:38:19.902Z,12.07
2023-03-01T17:40:46.957Z,10.23
2023-03-01T17:43:14.381Z,9.93
2023-03-01T17:45:40.923Z,10.15
2023-03-01T17:48:07.885Z,10.82
2023-03-01T17:50:38.839Z,10.07
2023-03-01T17:53:09.630Z,9.68
2023-03-01T17:55:37.377Z,9.73
2023-03-01T17:58:04.675Z,11.63
2023-03-01T18:00:31.335Z,9.50
2023-03-01T18:02:57.816Z,9.82
2023-03-01T18:05:24.685Z,11.48
2023-03-01T18:07:52.240Z,10.48
2023-03-01T18:10:19.670Z,11.93
2023-03-01T18:12:46.489Z,10.63
2023-03-01T18:15:13.269Z,10.40
2023-03-01T18:17:42.563Z,10.73
2023-03-01T18:20:10.131Z,9.18
2023-03-01T18:22:37.833Z,9.10
2023-03-01T18:25:05.075Z,9.27
2023-03-01T18:27:31.637Z,9.95
2023-03-01T18:29:58.253Z,11.02
2023-03-01T18:32:25.650Z,8.90
2023-03-01T18:34:52.198Z,9.80
2023-03-01T18:37:18.652Z,8.82
2023-03-01T18:39:45.163Z,8.60
2023-03-01T18:42:11.671Z,10.20
2023-03-01T18:44:39.712Z,9.50
2023-03-01T18:47:06.180Z,11.10
2023-03-01T18:49:32.640Z,10.27
2023-03-01T18:51:59.300Z,10.55
2023-03-01T18:54:25.733Z,11.32
2023-03-01T18:56:52.213Z,12.13
2023-03-01T18:59:18.714Z,10.57
2023-03-01T19:01:45.377Z,10.13
2023-03-01T19:04:12.167Z,11.07
2023-03-01T19:06:39.447Z,10.23
2023-03-01T19:09:07.005Z,10.40
2023-03-01T19:11:35.343Z,10.25
2023-03-01T19:14:02.367Z,11.43
2023-03-01T19:16:31.483Z,11.35
2023-03-01T19:19:03.677Z,11.50
2023-03-01T19:21:31.912Z,11.00
2023-03-01T19:23:59.449Z,12.50
2023-03-01T19:26:27.173Z,11.45
2023-03-01T19:28:55.242Z,11.60
2023-03-01T19:31:25.632Z,13.23
2023-03-01T19:33:59.508Z,11.80
2023-03-01T19:36:34.998Z,10.82
2023-03-01T19:39:05.775Z,8.90
2023-03-01T19:41:32.277Z,10.20
2023-03-01T19:43:58.745Z,9.43
2023-03-01T19:46:25.678Z,9.88
2023-03-01T19:48:53.913Z,10.57
2023-03-01T19:51:20.439Z,10.15
2023-03-01T19:53:47.662Z,11.27
2023-03-01T19:56:14.236Z,11.77
2023-03-01T19:58:40.821Z,11.70
2023-03-01T20:01:15.352Z,11.30
2023-03-01T20:03:41.849Z,10.25
2023-03-01T20:06:20.228Z,12.00
2023-03-01T20:08:46.749Z,11.30
2023-03-01T20:11:14.564Z,10.80
2023-03-01T20:13:41.302Z,12.13
2023-03-01T20:16:08.512Z,10.55
2023-03-01T20:18:35.584Z,11.73
2023-03-01T20:21:02.777Z,10.98
2023-03-01T20:23:33.372Z,12.68
2023-03-01T20:26:08.755Z,13.25
2023-03-01T20:28:36.674Z,12.70
2023-03-01T20:31:05.175Z,12.30
2023-03-01T20:33:31.702Z,12.00
2023-03-01T20:35:58.258Z,13.98
2023-03-01T20:38:26.281Z,12.68
2023-03-01T20:41:03.966Z,11.63
2023-03-01T20:43:30.973Z,11.13
2023-03-01T20:45:57.435Z,10.52
2023-03-01T20:48:24.015Z,9.65
2023-03-01T20:50:50.500Z,10.82
2023-03-01T20:53:16.960Z,9.98
2023-03-01T20:55:43.408Z,10.15
2023-03-01T20:58:09.843Z,9.75
2023-03-01T21:00:36.291Z,9.50
2023-03-01T21:03:03.993Z,9.98
2023-03-01T21:05:31.723Z,10.15
2023-03-01T21:10:27.637Z,11.20
2023-03-01T21:12:54.228Z,10.63
2023-03-01T21:15:28.961Z,9.85
2023-03-01T21:17:55.997Z,9.32
2023-03-01T21:20:22.452Z,9.98
2023-03-01T21:22:48.895Z,9.93
2023-03-01T21:25:15.543Z,9.38
2023-03-01T21:27:42.024Z,10.48
2023-03-01T21:30:08.998Z,9.95
2023-03-01T21:32:35.579Z,9.60
2023-03-01T21:35:02.126Z,10.70
2023-03-01T21:37:28.540Z,10.02
2023-03-01T21:39:56.610Z,10.80
2023-03-01T21:42:23.177Z,10.02
2023-03-01T21:44:49.575Z,10.75
2023-03-01T21:47:16.138Z,9.95
2023-03-01T21:49:42.613Z,10.45
2023-03-01T21:52:09.067Z,11.30
2023-03-01T21:54:35.604Z,13.07
2023-03-01T21:57:02.037Z,10.27
2023-03-01T21:59:28.986Z,10.80
2023-03-01T22:01:55.512Z,11.00
2023-03-01T22:04:24.596Z,11.32
2023-03-01T22:06:54.286Z,11.48
2023-03-01T22:09:22.829Z,10.60
2023-03-01T22:11:51.196Z,13.87
2023-03-01T22:14:18.926Z,10.80
2023-03-01T22:16:46.638Z,10.70
2023-03-01T22:19:15.155Z,10.20
2023-03-01T22:21:43.679Z,12.37
2023-03-01T22:24:11.461Z,12.07
2023-03-01T22:26:40.913Z,11.83
2023-03-01T22:29:10.498Z,11.33
2023-03-01T22:31:37.209Z,10.80
2023-03-01T22:34:04.403Z,12.30
2023-03-01T22:36:31.485Z,11.07
2023-03-01T22:39:01.930Z,12.43
2023-03-01T22:41:48.413Z,13.07
2023-03-01T22:44:17.658Z,15.20
2023-03-01T22:46:44.436Z,16.10
2023-03-01T22:49:11.007Z,16.70
2023-03-01T22:51:39.809Z,15.90
2023-03-01T22:54:07.618Z,15.47
2023-03-01T22:56:36.716Z,13.53
2023-03-01T22:59:08.574Z,12.97
2023-03-01T23:01:38.342Z,14.07
2023-03-01T23:04:05.162Z,13.10
2023-03-01T23:06:32.229Z,11.57
2023-03-01T23:09:01.741Z,13.63
2023-03-01T23:11:29.480Z,11.47
2023-03-01T23:13:56.462Z,11.27
2023-03-01T23:16:26.175Z,11.33
2023-03-01T23:18:58.276Z,12.27
2023-03-01T23:21:24.763Z,12.03
2023-03-01T23:23:51.576Z,11.47
2023-03-01T23:26:18.820Z,12.13
2023-03-01T23:28:45.383Z,12.60
2023-03-01T23:31:14.251Z,10.90
2023-03-01T23:33:43.208Z,11.63
2023-03-01T23:36:20.025Z,11.63
2023-03-01T23:38:47.218Z,13.93
2023-03-01T23:41:16.900Z,12.43
2023-03-01T23:43:48.272Z,11.80
2023-03-01T23:46:16.219Z,11.90
2023-03-01T23:48:43.359Z,12.40
2023-03-01T23:51:10.428Z,11.30
2023-03-01T23:53:38.400Z,13.33
2023-03-01T23:56:05.456Z,13.33
2023-03-01T23:58:32.185Z,13.03
